Federal Heights, Colorado
Current Conditions -  °F | °C
As of 8:45 PM on Wednesday 22 Oct 2014 (Local Time) from KBJC Reporting Station
Scattered Clouds Scattered Clouds  
Wind Chill: 55°   Ceiling: Unl
Heat Index: 55°   Visibility: 30mi
Dew Point: 32°   Wind: 0mph
Humidity: 41%   Direction: NA
Pressure: 30.16"   Gusts: NA
Location:  39.9123°N, 105.004°W
Report Text: KBJC 230245Z 00000KT 30SM FEW070 SCT100 13/00 A3016
Loading
Personal Weather Stations






























Interactive Weather Map
Tropical Storm Tracking
New forecast layout! Learn more

10-Day Weather Forecast

Advertisements
Track Severe Weather on mobile